Time;durP1;ratioP1;P1;durP2;ratioP2;P2;SDS_P1;SDS_P2;PMS_P1;PMS_P2;Temp;Humidity;BMP_temperature;BMP_pressure;BME280_temperature;BME280_humidity;BME280_pressure;Samples;Min_cycle;Max_cycle;Signal;HPM_P1;HPM_P2
2023/05/15 00:02:13;;;;;;;18.27;15.00;;;10.40;99.90;;;;;;4993310;28;20230;-78
2023/05/15 00:04:40;;;;;;;12.00;10.80;;;10.40;99.90;;;;;;4992740;28;20204;-76
2023/05/15 00:07:07;;;;;;;13.50;12.13;;;10.40;99.90;;;;;;4993660;28;20288;-78
2023/05/15 00:09:35;;;;;;;11.67;10.43;;;10.30;99.90;;;;;;4993480;28;20207;-78
2023/05/15 00:12:02;;;;;;;11.13;10.13;;;10.30;99.90;;;;;;4993792;28;20204;-77
2023/05/15 00:14:29;;;;;;;12.90;10.47;;;10.30;99.90;;;;;;4992794;28;20235;-78
2023/05/15 00:16:56;;;;;;;12.73;9.57;;;10.30;99.90;;;;;;4993388;28;20664;-77
2023/05/15 00:19:23;;;;;;;10.77;9.67;;;10.30;99.90;;;;;;4993632;28;20639;-77
2023/05/15 00:21:50;;;;;;;12.63;11.33;;;10.30;99.90;;;;;;4993675;28;20322;-77
2023/05/15 00:24:17;;;;;;;11.13;10.03;;;10.30;99.90;;;;;;4992455;28;20219;-77
2023/05/15 00:26:45;;;;;;;10.97;9.97;;;10.30;99.90;;;;;;4993569;28;20627;-77
2023/05/15 00:29:12;;;;;;;12.07;10.87;;;10.20;99.90;;;;;;4993709;28;20239;-77
2023/05/15 00:31:39;;;;;;;15.93;13.03;;;10.30;99.90;;;;;;4993506;28;20504;-75
2023/05/15 00:34:06;;;;;;;11.83;10.57;;;10.20;99.90;;;;;;4992576;28;20242;-77
2023/05/15 00:36:33;;;;;;;13.87;12.27;;;10.30;99.90;;;;;;4993873;28;20290;-77
2023/05/15 00:38:59;;;;;;;13.27;11.87;;;10.20;99.90;;;;;;4993288;28;20211;-77
2023/05/15 00:41:30;;;;;;;13.87;11.83;;;10.20;99.90;;;;;;4992933;28;20644;-77
2023/05/15 00:44:00;;;;;;;18.97;11.70;;;10.20;99.90;;;;;;4993417;28;20192;-77
2023/05/15 00:46:28;;;;;;;12.90;11.63;;;10.20;99.90;;;;;;4993024;28;20593;-77
2023/05/15 00:48:57;;;;;;;12.77;11.47;;;10.20;99.90;;;;;;4992375;28;20211;-77
2023/05/15 00:51:24;;;;;;;12.43;9.80;;;10.20;99.90;;;;;;4992807;28;20223;-77
2023/05/15 00:53:52;;;;;;;11.57;10.37;;;10.20;99.90;;;;;;4993256;28;20192;-76
2023/05/15 00:56:20;;;;;;;13.43;11.07;;;10.20;99.90;;;;;;4993382;28;20541;-76
2023/05/15 00:58:48;;;;;;;10.80;9.80;;;10.20;99.90;;;;;;4973626;28;20244;-77
2023/05/15 01:01:17;;;;;;;13.20;10.70;;;10.30;99.90;;;;;;4982908;28;20238;-77
2023/05/15 01:03:44;;;;;;;13.57;10.27;;;10.30;99.90;;;;;;4993693;28;20206;-77
2023/05/15 01:06:11;;;;;;;15.30;10.00;;;10.40;99.90;;;;;;4992915;28;20254;-77
2023/05/15 01:08:42;;;;;;;10.00;9.10;;;10.40;99.90;;;;;;4992561;28;20215;-77
2023/05/15 01:11:11;;;;;;;8.77;7.97;;;10.40;99.90;;;;;;4992495;28;20204;-76
2023/05/15 01:13:38;;;;;;;10.33;9.37;;;10.40;99.90;;;;;;4973318;28;20509;-76
2023/05/15 01:16:06;;;;;;;9.97;8.97;;;10.40;99.90;;;;;;4973797;28;20207;-76
2023/05/15 01:18:35;;;;;;;8.70;7.80;;;10.40;99.90;;;;;;4973555;28;20251;-77
2023/05/15 01:21:34;;;;;;;9.10;8.17;;;10.40;99.90;;;;;;4973188;28;20201;-77
2023/05/15 01:24:19;;;;;;;8.13;7.33;;;10.30;99.90;;;;;;4957439;28;20201;-77
2023/05/15 01:27:22;;;;;;;9.33;7.83;;;10.30;99.90;;;;;;4973719;28;20255;-77
2023/05/15 01:29:58;;;;;;;8.10;7.30;;;10.30;99.90;;;;;;4977338;28;20211;-77
2023/05/15 01:32:31;;;;;;;8.30;7.60;;;10.30;99.90;;;;;;4996809;28;20282;-76
2023/05/15 01:35:09;;;;;;;7.43;6.83;;;10.20;99.90;;;;;;4996206;28;20192;-76
2023/05/15 01:37:41;;;;;;;9.03;7.67;;;10.20;99.90;;;;;;4977348;28;20209;-76
2023/05/15 01:40:10;;;;;;;7.70;7.10;;;10.20;99.90;;;;;;4977252;28;20196;-76
2023/05/15 01:42:44;;;;;;;8.37;7.67;;;10.10;99.90;;;;;;4976242;28;20822;-75
2023/05/15 01:45:13;;;;;;;12.67;10.63;;;10.10;99.90;;;;;;4977452;28;20304;-75
2023/05/15 01:47:44;;;;;;;12.27;9.70;;;10.20;99.90;;;;;;4976210;28;20220;-76
2023/05/15 01:50:15;;;;;;;10.00;8.93;;;10.30;99.90;;;;;;4977142;28;20263;-76
2023/05/15 01:52:44;;;;;;;13.23;9.03;;;10.20;99.90;;;;;;4977154;28;20200;-76
2023/05/15 01:55:13;;;;;;;10.10;9.10;;;10.20;99.90;;;;;;4993175;28;20730;-77
2023/05/15 01:57:42;;;;;;;9.73;8.73;;;10.20;99.90;;;;;;4996106;28;20308;-77
2023/05/15 02:00:11;;;;;;;8.97;8.07;;;10.30;99.90;;;;;;4995941;28;20524;-76
2023/05/15 02:02:39;;;;;;;8.33;7.10;;;10.40;99.90;;;;;;4995617;28;20317;-76
2023/05/15 02:05:07;;;;;;;8.60;7.70;;;10.40;99.90;;;;;;4995300;28;20545;-76
2023/05/15 02:07:34;;;;;;;11.50;9.37;;;10.40;99.90;;;;;;4995677;28;20200;-76
2023/05/15 02:10:03;;;;;;;11.87;9.70;;;10.40;99.90;;;;;;4995132;28;20221;-76
2023/05/15 02:12:30;;;;;;;12.83;11.63;;;10.40;99.90;;;;;;4994673;28;20211;-77
2023/05/15 02:14:59;;;;;;;13.20;11.90;;;10.40;99.90;;;;;;4994572;28;20200;-76
2023/05/15 02:17:28;;;;;;;12.93;11.63;;;10.50;99.90;;;;;;4994993;28;20212;-76
2023/05/15 02:19:55;;;;;;;12.57;11.27;;;10.40;99.90;;;;;;4995627;28;20560;-76
2023/05/15 02:22:22;;;;;;;14.43;12.67;;;10.40;99.90;;;;;;4994759;28;20231;-76
2023/05/15 02:24:48;;;;;;;14.17;12.43;;;10.40;99.90;;;;;;4995165;28;20249;-76
2023/05/15 02:27:21;;;;;;;13.00;11.70;;;10.30;99.90;;;;;;4995573;28;20615;-75
2023/05/15 02:30:09;;;;;;;14.60;13.03;;;10.30;99.90;;;;;;4995300;28;20237;-77
2023/05/15 02:32:47;;;;;;;13.50;12.20;;;10.30;99.90;;;;;;4978879;28;20219;-76
2023/05/15 02:35:21;;;;;;;13.07;11.67;;;10.20;99.90;;;;;;4976095;28;20492;-77
2023/05/15 02:37:52;;;;;;;12.90;11.63;;;10.20;99.90;;;;;;4982848;28;20203;-77
2023/05/15 02:40:20;;;;;;;16.90;13.10;;;10.10;99.90;;;;;;4995479;28;20287;-76
2023/05/15 02:42:47;;;;;;;14.27;12.87;;;10.10;99.90;;;;;;4994122;28;20220;-77
2023/05/15 02:45:17;;;;;;;14.23;12.93;;;10.00;99.90;;;;;;4993833;28;20612;-76
2023/05/15 02:47:44;;;;;;;14.40;13.03;;;10.00;99.90;;;;;;4989113;28;20217;-76
2023/05/15 02:50:11;;;;;;;15.03;13.63;;;10.00;99.90;;;;;;4975696;28;20212;-75
2023/05/15 02:52:38;;;;;;;13.57;12.27;;;10.00;99.90;;;;;;4975009;28;20203;-76
2023/05/15 02:55:06;;;;;;;14.20;12.80;;;9.90;99.90;;;;;;4994445;28;20275;-76
2023/05/15 02:57:33;;;;;;;17.43;15.73;;;9.90;99.90;;;;;;4994988;28;20304;-76
2023/05/15 03:00:00;;;;;;;17.23;15.33;;;9.90;99.90;;;;;;4994195;28;20236;-76
2023/05/15 03:02:29;;;;;;;16.27;14.20;;;9.90;99.90;;;;;;4993888;28;20220;-76
2023/05/15 03:04:55;;;;;;;14.90;13.47;;;9.90;99.90;;;;;;4994310;28;20593;-76
2023/05/15 03:07:23;;;;;;;16.10;13.80;;;9.80;99.90;;;;;;4994504;28;20195;-76
2023/05/15 03:09:49;;;;;;;14.43;12.93;;;9.80;99.90;;;;;;4981297;28;20239;-76
2023/05/15 03:12:16;;;;;;;13.10;11.80;;;9.90;99.90;;;;;;4974721;28;20694;-75
2023/05/15 03:14:43;;;;;;;15.60;13.40;;;9.90;99.90;;;;;;4975295;28;20283;-76
2023/05/15 03:17:10;;;;;;;14.97;12.63;;;9.90;99.90;;;;;;4975368;28;20208;-75
2023/05/15 03:19:38;;;;;;;14.43;12.87;;;9.90;99.90;;;;;;4974760;28;20244;-76
2023/05/15 03:22:06;;;;;;;14.67;13.23;;;9.90;99.90;;;;;;4974845;28;20223;-76
2023/05/15 03:24:32;;;;;;;17.07;13.13;;;9.90;99.90;;;;;;4974862;28;20193;-75
2023/05/15 03:26:59;;;;;;;14.60;12.90;;;9.90;99.90;;;;;;4993269;28;20211;-76
2023/05/15 03:29:26;;;;;;;14.27;12.87;;;10.00;99.90;;;;;;4994662;28;20556;-77
2023/05/15 03:31:53;;;;;;;13.00;11.23;;;10.00;99.90;;;;;;4994506;28;20199;-77
2023/05/15 03:34:20;;;;;;;12.43;11.23;;;10.00;99.90;;;;;;4992624;28;20302;-76
2023/05/15 03:36:48;;;;;;;14.60;13.20;;;10.10;99.90;;;;;;4994350;28;20290;-76
2023/05/15 03:39:15;;;;;;;15.40;13.87;;;10.20;99.90;;;;;;4988666;28;20220;-77
2023/05/15 03:41:42;;;;;;;16.13;13.00;;;10.20;99.90;;;;;;4974043;28;20539;-77
2023/05/15 03:44:09;;;;;;;13.93;12.57;;;10.10;99.90;;;;;;4974975;28;20296;-77
2023/05/15 03:46:36;;;;;;;15.30;13.70;;;10.30;99.90;;;;;;4975136;28;20200;-77
2023/05/15 03:49:03;;;;;;;13.43;12.13;;;10.30;99.90;;;;;;4974542;28;20210;-77
2023/05/15 03:51:29;;;;;;;15.17;13.67;;;10.30;99.90;;;;;;4974681;28;20234;-76
2023/05/15 03:53:58;;;;;;;17.10;15.33;;;10.30;99.90;;;;;;4974619;28;20619;-75
2023/05/15 03:56:25;;;;;;;17.20;15.50;;;10.30;99.90;;;;;;4991680;28;20608;-76
2023/05/15 03:58:53;;;;;;;17.80;16.00;;;10.30;99.90;;;;;;4994042;28;20208;-76
2023/05/15 04:01:20;;;;;;;16.33;14.20;;;10.30;99.90;;;;;;4974758;28;20236;-77
2023/05/15 04:03:47;;;;;;;16.60;15.00;;;10.30;99.90;;;;;;4974516;28;20221;-76
2023/05/15 04:06:14;;;;;;;16.00;14.37;;;10.30;99.90;;;;;;4974510;28;20192;-77
2023/05/15 04:08:40;;;;;;;17.33;14.17;;;10.40;99.90;;;;;;4976582;28;20204;-77
2023/05/15 04:11:10;;;;;;;15.60;13.97;;;10.40;99.90;;;;;;4994043;28;20200;-77
2023/05/15 04:13:37;;;;;;;16.77;14.07;;;10.40;99.90;;;;;;4993725;28;20328;-79
2023/05/15 04:16:06;;;;;;;17.43;14.37;;;10.50;99.90;;;;;;4993358;28;20783;-76
2023/05/15 04:18:32;;;;;;;17.23;13.93;;;10.50;99.90;;;;;;4993749;28;20219;-76
2023/05/15 04:21:00;;;;;;;15.13;13.03;;;10.60;99.90;;;;;;4993905;28;20246;-76
2023/05/15 04:23:27;;;;;;;16.10;14.30;;;10.50;99.90;;;;;;4991721;28;20219;-77
2023/05/15 04:25:54;;;;;;;15.83;14.23;;;10.50;99.90;;;;;;4993932;28;20203;-76
2023/05/15 04:28:23;;;;;;;16.10;14.50;;;10.60;99.90;;;;;;4993057;28;20291;-76
2023/05/15 04:30:49;;;;;;;22.10;16.13;;;10.60;99.90;;;;;;4992929;28;20283;-77
2023/05/15 04:33:16;;;;;;;18.07;16.23;;;10.60;99.90;;;;;;4993708;28;20290;-77
2023/05/15 04:35:43;;;;;;;15.20;13.70;;;10.60;99.90;;;;;;4992410;28;20200;-76
2023/05/15 04:38:10;;;;;;;16.80;15.10;;;10.70;99.90;;;;;;4993073;28;20200;-76
2023/05/15 04:40:37;;;;;;;17.53;14.50;;;10.70;99.90;;;;;;4993642;28;20204;-77
2023/05/15 04:43:04;;;;;;;16.43;14.73;;;10.80;99.90;;;;;;4993571;28;20324;-77
2023/05/15 04:45:33;;;;;;;16.93;13.80;;;10.80;99.90;;;;;;4981725;28;20227;-77
2023/05/15 04:47:59;;;;;;;17.07;15.00;;;10.80;99.90;;;;;;4973853;28;20215;-77
2023/05/15 04:50:26;;;;;;;22.17;18.57;;;10.80;99.90;;;;;;4973297;28;20291;-77
2023/05/15 04:52:53;;;;;;;22.13;18.73;;;10.80;99.90;;;;;;4974238;28;20297;-77
2023/05/15 04:55:20;;;;;;;25.87;19.97;;;10.80;99.90;;;;;;4989272;28;20291;-77
2023/05/15 04:57:47;;;;;;;23.33;20.27;;;10.80;99.90;;;;;;4991577;28;20262;-77
2023/05/15 05:00:15;;;;;;;27.47;23.00;;;10.80;99.90;;;;;;4993131;28;20652;-76
2023/05/15 05:02:44;;;;;;;24.10;21.53;;;10.90;99.90;;;;;;4993238;28;20319;-76
2023/05/15 05:05:13;;;;;;;24.47;21.83;;;10.90;99.90;;;;;;4992465;28;20310;-77
2023/05/15 05:07:41;;;;;;;25.10;22.40;;;10.90;99.90;;;;;;4997293;28;20493;-77
2023/05/15 05:10:09;;;;;;;28.37;22.27;;;10.90;99.90;;;;;;4996587;28;20207;-76
2023/05/15 05:12:36;;;;;;;27.20;23.27;;;11.00;99.90;;;;;;4995152;28;20283;-77
2023/05/15 05:15:03;;;;;;;26.60;23.00;;;11.00;99.90;;;;;;4997466;28;20210;-77
2023/05/15 05:17:30;;;;;;;27.40;23.87;;;10.90;99.90;;;;;;4996936;28;20283;-77
2023/05/15 05:19:58;;;;;;;28.23;23.87;;;10.90;99.90;;;;;;4996462;28;20204;-76
2023/05/15 05:22:25;;;;;;;29.37;22.20;;;11.00;99.90;;;;;;4995835;28;20295;-76
2023/05/15 05:24:52;;;;;;;31.00;23.30;;;11.00;99.90;;;;;;4996917;28;20192;-76
2023/05/15 05:27:19;;;;;;;29.90;23.13;;;11.00;99.90;;;;;;4995868;28;20299;-77
2023/05/15 05:29:45;;;;;;;27.50;21.27;;;11.10;99.90;;;;;;4996901;28;20602;-76
2023/05/15 05:32:12;;;;;;;24.37;18.63;;;11.10;99.90;;;;;;4996641;28;20203;-77
2023/05/15 05:34:39;;;;;;;29.83;23.07;;;11.10;99.90;;;;;;4987670;28;20255;-77
2023/05/15 05:37:08;;;;;;;27.70;21.70;;;11.10;99.90;;;;;;4977164;28;20315;-76
2023/05/15 05:39:35;;;;;;;28.30;22.20;;;11.20;99.90;;;;;;4977261;28;20295;-77
2023/05/15 05:42:02;;;;;;;28.80;22.53;;;11.20;99.90;;;;;;4976609;28;20484;-77
2023/05/15 05:44:28;;;;;;;31.27;22.77;;;11.20;99.90;;;;;;4977223;28;20227;-77
2023/05/15 05:46:55;;;;;;;29.77;22.57;;;11.30;99.90;;;;;;4976481;28;20200;-76
2023/05/15 05:49:22;;;;;;;32.53;24.77;;;11.30;99.90;;;;;;4976938;28;20362;-77
2023/05/15 05:51:49;;;;;;;29.10;22.00;;;11.30;99.90;;;;;;4976754;28;20518;-76
2023/05/15 05:54:17;;;;;;;32.00;22.70;;;11.40;99.90;;;;;;4976574;28;20200;-77
2023/05/15 05:56:44;;;;;;;27.67;21.90;;;11.40;99.90;;;;;;4976936;28;20251;-77
2023/05/15 05:59:11;;;;;;;27.13;21.20;;;11.50;99.90;;;;;;4976814;28;20207;-77
2023/05/15 06:01:38;;;;;;;29.87;20.83;;;11.40;99.90;;;;;;4987489;28;20211;-77
2023/05/15 06:04:05;;;;;;;23.07;19.00;;;11.50;99.90;;;;;;4995214;28;20231;-77
2023/05/15 06:06:33;;;;;;;34.30;25.17;;;11.50;99.90;;;;;;4995702;28;20589;-77
2023/05/15 06:09:00;;;;;;;35.63;26.13;;;11.50;99.90;;;;;;4995636;28;20254;-80
2023/05/15 06:11:28;;;;;;;37.57;26.40;;;11.60;99.90;;;;;;4994745;28;20207;-79
2023/05/15 06:13:55;;;;;;;34.97;25.10;;;11.70;99.90;;;;;;4995867;28;20282;-80
2023/05/15 06:16:22;;;;;;;35.60;27.27;;;11.70;99.90;;;;;;4993923;28;20355;-76
2023/05/15 06:18:49;;;;;;;33.33;25.80;;;11.80;99.90;;;;;;4995775;28;20206;-77
2023/05/15 06:21:16;;;;;;;36.50;27.63;;;11.90;99.90;;;;;;4995620;28;20259;-77
2023/05/15 06:23:42;;;;;;;39.47;28.20;;;11.90;99.90;;;;;;4988618;28;20220;-77
2023/05/15 06:26:10;;;;;;;34.47;26.03;;;11.90;99.90;;;;;;4976221;28;20296;-77
2023/05/15 06:28:38;;;;;;;31.83;24.87;;;11.90;99.90;;;;;;4976203;28;20279;-77
2023/05/15 06:31:05;;;;;;;30.10;24.80;;;12.00;99.90;;;;;;4975711;28;20196;-76
2023/05/15 06:33:32;;;;;;;36.60;26.87;;;12.00;99.90;;;;;;4976400;28;20235;-76
2023/05/15 06:35:58;;;;;;;33.93;25.90;;;12.10;99.90;;;;;;4975299;28;20208;-78
2023/05/15 06:38:25;;;;;;;31.13;24.03;;;12.20;99.90;;;;;;4976563;28;20211;-77
2023/05/15 06:40:52;;;;;;;34.10;26.47;;;12.20;99.90;;;;;;4977072;28;20205;-78
2023/05/15 06:43:19;;;;;;;33.83;24.90;;;12.30;99.90;;;;;;4994731;28;20220;-78
2023/05/15 06:45:47;;;;;;;31.37;24.63;;;12.20;99.90;;;;;;4994403;28;20503;-77
2023/05/15 06:48:14;;;;;;;33.93;24.67;;;12.20;99.90;;;;;;4994984;28;20363;-78
2023/05/15 06:50:41;;;;;;;32.50;25.37;;;12.30;99.90;;;;;;4995175;28;20214;-77
2023/05/15 06:53:08;;;;;;;32.03;24.63;;;12.40;99.90;;;;;;4984364;28;20205;-76
2023/05/15 06:55:36;;;;;;;28.47;23.20;;;12.50;99.90;;;;;;4975940;28;20204;-76
2023/05/15 06:58:04;;;;;;;30.47;23.00;;;12.60;99.90;;;;;;4975048;28;20519;-77
2023/05/15 07:00:31;;;;;;;29.33;24.17;;;12.60;99.90;;;;;;4975555;28;20228;-77
2023/05/15 07:02:59;;;;;;;31.70;23.73;;;12.80;99.90;;;;;;4985886;28;20212;-77
2023/05/15 07:05:26;;;;;;;27.70;23.60;;;12.80;99.90;;;;;;4994306;28;20200;-76
2023/05/15 07:07:53;;;;;;;29.23;24.07;;;12.80;99.90;;;;;;4989544;28;20207;-78
2023/05/15 07:10:20;;;;;;;32.20;24.83;;;12.90;99.90;;;;;;4975715;28;20205;-76
2023/05/15 07:12:47;;;;;;;30.53;24.07;;;12.90;99.90;;;;;;4974852;28;20205;-76
2023/05/15 07:15:16;;;;;;;32.63;24.77;;;12.90;99.90;;;;;;4975520;28;20209;-77
2023/05/15 07:17:43;;;;;;;28.00;24.60;;;12.90;99.90;;;;;;4975514;28;20255;-77
2023/05/15 07:20:12;;;;;;;28.50;23.97;;;13.00;99.90;;;;;;4974669;28;20565;-77
2023/05/15 07:22:39;;;;;;;27.47;21.73;;;13.00;99.90;;;;;;4975286;28;20240;-77
2023/05/15 07:25:07;;;;;;;24.60;21.37;;;13.00;99.90;;;;;;4975261;28;20710;-78
2023/05/15 07:27:34;;;;;;;23.42;20.58;;;13.00;99.90;;;;;;4974938;28;20208;-77
2023/05/15 07:30:02;;;;;;;25.53;21.23;;;13.00;99.90;;;;;;4974977;28;20193;-77
2023/05/15 07:32:29;;;;;;;24.83;21.17;;;13.00;99.90;;;;;;4989905;28;20239;-75
2023/05/15 07:34:56;;;;;;;21.87;19.13;;;13.00;99.90;;;;;;4994546;28;20666;-77
2023/05/15 07:37:25;;;;;;;22.80;19.10;;;13.10;99.90;;;;;;4978007;28;20204;-76
2023/05/15 07:39:51;;;;;;;25.63;18.20;;;13.10;99.90;;;;;;4982041;28;20218;-77
2023/05/15 07:42:18;;;;;;;21.37;18.00;;;13.20;99.90;;;;;;4994327;28;20601;-78
2023/05/15 07:44:45;;;;;;;21.50;16.33;;;13.20;99.90;;;;;;4993357;28;20236;-77
2023/05/15 07:47:12;;;;;;;26.40;19.30;;;13.30;99.90;;;;;;4993909;28;20503;-77
2023/05/15 07:49:39;;;;;;;24.48;17.58;;;13.30;99.90;;;;;;4994371;28;20206;-77
2023/05/15 07:52:06;;;;;;;22.53;17.87;;;13.30;99.90;;;;;;4994617;28;20200;-77
2023/05/15 07:54:34;;;;;;;21.40;16.80;;;13.30;99.90;;;;;;4992944;28;20621;-77
2023/05/15 07:57:02;;;;;;;18.97;16.10;;;13.30;99.90;;;;;;4993932;28;20216;-76
2023/05/15 07:59:29;;;;;;;20.70;17.27;;;13.30;99.90;;;;;;4993734;28;20196;-76
2023/05/15 08:01:56;;;;;;;19.13;17.00;;;13.20;99.90;;;;;;4984872;28;20561;-77
2023/05/15 08:04:23;;;;;;;23.07;16.37;;;13.20;99.90;;;;;;4974847;28;20220;-76
2023/05/15 08:06:50;;;;;;;23.77;16.10;;;13.30;99.90;;;;;;4974601;28;20629;-77
2023/05/15 08:09:17;;;;;;;19.75;15.43;;;13.30;99.90;;;;;;4974087;28;20214;-77
2023/05/15 08:11:45;;;;;;;19.07;15.50;;;13.30;99.90;;;;;;4982383;28;20208;-77
2023/05/15 08:14:12;;;;;;;18.37;14.87;;;13.30;99.90;;;;;;4994291;28;20200;-76
2023/05/15 08:16:39;;;;;;;17.73;13.67;;;13.30;99.90;;;;;;4993368;28;20207;-77
2023/05/15 08:19:06;;;;;;;15.40;13.20;;;13.40;99.90;;;;;;4993722;28;20201;-76
2023/05/15 08:21:33;;;;;;;19.87;14.73;;;13.40;99.90;;;;;;4992566;28;20230;-76
2023/05/15 08:24:01;;;;;;;15.93;13.55;;;13.50;99.90;;;;;;4993781;28;20667;-78
2023/05/15 08:26:27;;;;;;;14.60;13.05;;;13.50;99.90;;;;;;4992581;28;20216;-75
2023/05/15 08:28:56;;;;;;;17.30;14.23;;;13.50;99.90;;;;;;4993332;28;20204;-77
2023/05/15 08:31:22;;;;;;;16.57;13.60;;;13.50;99.90;;;;;;4993542;28;20204;-76
2023/05/15 08:33:49;;;;;;;16.20;14.37;;;13.50;99.90;;;;;;4994026;28;20208;-76
2023/05/15 08:36:17;;;;;;;20.60;15.43;;;13.50;99.90;;;;;;4992826;28;20199;-76
2023/05/15 08:38:43;;;;;;;19.97;14.87;;;13.50;99.90;;;;;;4993558;28;20295;-77
2023/05/15 08:41:21;;;;;;;15.90;14.27;;;13.50;99.90;;;;;;4996585;28;20208;-76
2023/05/15 08:43:52;;;;;;;15.85;14.20;;;13.60;99.90;;;;;;4997042;28;20310;-77
2023/05/15 08:46:21;;;;;;;19.77;14.93;;;13.60;99.90;;;;;;4997695;28;20210;-76
2023/05/15 08:48:50;;;;;;;15.97;14.00;;;13.70;99.90;;;;;;4997198;28;20211;-77
2023/05/15 08:51:17;;;;;;;18.73;15.73;;;13.70;99.90;;;;;;4997123;28;20214;-76
2023/05/15 08:53:45;;;;;;;18.23;16.33;;;13.70;99.90;;;;;;4997748;28;20291;-76
2023/05/15 08:56:12;;;;;;;17.47;15.27;;;13.70;99.90;;;;;;4997319;28;20291;-76
2023/05/15 08:58:39;;;;;;;16.42;14.60;;;13.70;99.90;;;;;;4978117;28;20235;-77
2023/05/15 09:01:07;;;;;;;18.27;15.43;;;13.70;99.90;;;;;;4977687;28;20232;-76
2023/05/15 09:03:35;;;;;;;17.00;15.20;;;13.80;99.90;;;;;;4977753;28;20623;-76
2023/05/15 09:06:03;;;;;;;18.03;16.13;;;13.80;99.90;;;;;;4979464;28;20208;-77
2023/05/15 09:08:31;;;;;;;17.23;15.32;;;13.80;99.90;;;;;;4997322;28;20203;-76
2023/05/15 09:11:00;;;;;;;19.08;16.65;;;13.70;99.90;;;;;;4996534;28;20747;-80
2023/05/15 09:13:27;;;;;;;18.98;16.67;;;13.70;99.90;;;;;;4996380;28;20216;-77
2023/05/15 09:15:53;;;;;;;18.08;16.30;;;13.70;99.90;;;;;;4997475;28;20200;-79
2023/05/15 09:18:21;;;;;;;17.70;15.80;;;13.70;99.90;;;;;;4996280;28;20195;-77
2023/05/15 09:20:50;;;;;;;18.20;16.33;;;13.70;99.90;;;;;;4996876;28;20591;-78
2023/05/15 09:23:24;;;;;;;19.15;15.52;;;13.70;99.90;;;;;;4988623;28;20212;-77
2023/05/15 09:25:54;;;;;;;18.00;16.10;;;13.80;99.90;;;;;;4976727;28;20235;-77
2023/05/15 09:28:29;;;;;;;16.90;15.10;;;13.80;99.90;;;;;;4977630;28;20189;-77
2023/05/15 09:31:01;;;;;;;16.73;14.30;;;13.80;99.90;;;;;;4977381;28;20251;-77
2023/05/15 09:33:29;;;;;;;14.52;13.02;;;13.90;99.90;;;;;;4976946;28;20201;-76
2023/05/15 09:35:57;;;;;;;16.77;15.05;;;13.90;99.90;;;;;;4977226;28;20204;-77
2023/05/15 09:38:24;;;;;;;17.88;16.08;;;13.80;99.90;;;;;;4977301;28;20205;-76
2023/05/15 09:41:00;;;;;;;16.00;14.50;;;13.90;99.90;;;;;;4976898;28;20193;-77
2023/05/15 09:43:31;;;;;;;16.02;14.38;;;13.90;99.90;;;;;;4996603;28;20525;-76
2023/05/15 09:45:58;;;;;;;16.02;14.43;;;13.90;99.90;;;;;;4996145;28;20227;-78
2023/05/15 09:48:24;;;;;;;15.63;14.00;;;14.00;99.90;;;;;;4996821;28;20207;-78
2023/05/15 09:50:52;;;;;;;15.13;13.53;;;14.00;99.90;;;;;;4990111;28;20207;-77
2023/05/15 09:53:22;;;;;;;17.15;15.35;;;14.10;99.90;;;;;;4976349;28;20287;-78
2023/05/15 09:55:49;;;;;;;17.95;13.43;;;14.10;99.90;;;;;;4977054;28;20213;-77
2023/05/15 09:58:18;;;;;;;14.80;12.70;;;14.20;99.90;;;;;;4976789;28;20633;-77
2023/05/15 10:00:46;;;;;;;12.80;11.50;;;14.30;99.90;;;;;;4976183;28;20320;-78
2023/05/15 10:03:13;;;;;;;14.52;12.90;;;14.40;99.90;;;;;;4976905;28;20255;-77
2023/05/15 10:05:40;;;;;;;13.70;12.27;;;14.60;99.90;;;;;;4976832;28;20317;-78
2023/05/15 10:08:07;;;;;;;13.65;11.55;;;14.60;99.90;;;;;;4986430;28;20216;-77
2023/05/15 10:10:35;;;;;;;12.95;11.27;;;14.80;99.90;;;;;;4996330;28;20485;-77
2023/05/15 10:13:04;;;;;;;16.60;11.68;;;14.90;99.90;;;;;;4994952;28;20308;-77
2023/05/15 10:15:32;;;;;;;11.18;9.80;;;15.00;99.90;;;;;;4994424;28;20208;-77
2023/05/15 10:18:00;;;;;;;14.45;10.63;;;15.10;99.90;;;;;;4996323;28;20200;-78
2023/05/15 10:20:27;;;;;;;13.98;11.10;;;15.10;99.90;;;;;;4995888;28;20515;-77
2023/05/15 10:22:56;;;;;;;13.02;10.30;;;15.00;99.90;;;;;;4993990;28;20613;-77
2023/05/15 10:25:38;;;;;;;11.88;10.40;;;15.10;99.90;;;;;;4995127;28;20493;-77
2023/05/15 10:28:09;;;;;;;10.07;8.60;;;15.00;99.90;;;;;;4976121;28;20196;-78
2023/05/15 10:30:36;;;;;;;11.77;8.40;;;15.10;99.90;;;;;;4976371;28;20200;-75
2023/05/15 10:33:04;;;;;;;11.43;8.05;;;15.10;99.90;;;;;;4992738;28;20226;-77
2023/05/15 10:35:32;;;;;;;13.23;7.85;;;15.10;99.90;;;;;;4995105;28;20226;-77
2023/05/15 10:38:00;;;;;;;10.40;7.43;;;15.10;99.90;;;;;;4995611;28;20246;-77
2023/05/15 10:40:28;;;;;;;9.70;7.00;;;15.10;99.90;;;;;;4995449;28;20303;-77
2023/05/15 10:42:59;;;;;;;13.23;8.13;;;15.10;99.90;;;;;;4994122;28;20215;-78
2023/05/15 10:45:26;;;;;;;7.72;6.93;;;15.10;99.90;;;;;;4995501;28;20228;-77
2023/05/15 10:47:54;;;;;;;15.05;10.05;;;15.10;99.90;;;;;;4995597;28;20192;-77
2023/05/15 10:50:21;;;;;;;14.60;9.07;;;15.10;99.90;;;;;;4985970;28;20509;-77
2023/05/15 10:52:51;;;;;;;12.35;10.25;;;15.10;99.90;;;;;;4976125;28;20204;-78
2023/05/15 10:55:19;;;;;;;14.52;10.55;;;15.00;99.90;;;;;;4975819;28;20609;-77
2023/05/15 10:57:46;;;;;;;19.17;12.32;;;15.00;99.90;;;;;;4975782;28;20238;-77
2023/05/15 11:00:30;;;;;;;18.48;14.77;;;14.90;99.90;;;;;;4975391;28;20255;-77
2023/05/15 11:02:57;;;;;;;19.80;15.93;;;14.90;99.90;;;;;;4974693;28;20497;-76
2023/05/15 11:05:25;;;;;;;20.15;15.45;;;14.80;99.90;;;;;;4974593;28;20344;-77
2023/05/15 11:08:24;;;;;;;19.73;15.70;;;14.90;99.90;;;;;;4975614;28;20292;-77
2023/05/15 11:10:52;;;;;;;24.17;16.73;;;14.80;99.90;;;;;;4975088;28;20204;-77
2023/05/15 11:13:19;;;;;;;27.33;17.25;;;14.70;99.90;;;;;;4975439;28;20975;-78
2023/05/15 11:15:48;;;;;;;25.10;16.08;;;14.70;99.90;;;;;;4975113;28;20213;-78
2023/05/15 11:18:15;;;;;;;23.38;16.55;;;14.60;99.90;;;;;;4975120;28;20291;-76
2023/05/15 11:21:03;;;;;;;18.90;13.73;;;14.70;99.90;;;;;;4975261;28;20601;-77
2023/05/15 11:23:38;;;;;;;20.00;13.17;;;14.60;99.90;;;;;;4992382;28;20223;-79
2023/05/15 11:26:15;;;;;;;22.88;13.65;;;14.50;99.90;;;;;;5079618;27;20571;-77
2023/05/15 11:28:43;;;;;;;18.17;12.40;;;14.50;99.90;;;;;;5070739;28;20203;-77
2023/05/15 11:31:10;;;;;;;18.80;11.40;;;14.50;99.90;;;;;;5070802;28;20201;-77
2023/05/15 11:33:39;;;;;;;14.07;11.18;;;14.50;99.90;;;;;;5070100;28;20215;-77
2023/05/15 11:36:06;;;;;;;17.85;9.82;;;14.50;99.90;;;;;;5070277;28;20205;-79
2023/05/15 11:38:38;;;;;;;9.55;7.07;;;14.50;99.90;;;;;;5069960;28;20197;-77
2023/05/15 11:41:18;;;;;;;7.50;5.60;;;14.50;99.90;;;;;;5070661;28;20196;-77
2023/05/15 11:43:46;;;;;;;9.18;5.03;;;14.50;99.90;;;;;;5070685;28;20223;-77
2023/05/15 11:46:13;;;;;;;6.32;4.53;;;14.60;99.90;;;;;;5069083;28;20229;-76
2023/05/15 11:48:41;;;;;;;6.45;4.50;;;14.70;99.90;;;;;;5069978;28;20240;-77
2023/05/15 11:51:18;;;;;;;6.30;4.03;;;14.80;99.90;;;;;;5070216;28;20212;-79
2023/05/15 11:53:45;;;;;;;3.85;3.35;;;14.90;99.90;;;;;;5069508;28;20277;-76
2023/05/15 11:56:19;;;;;;;5.72;3.83;;;14.90;99.90;;;;;;5070338;28;20240;-78
2023/05/15 11:58:48;;;;;;;5.55;3.92;;;15.00;99.90;;;;;;5069958;28;20290;-78
2023/05/15 12:01:15;;;;;;;6.05;3.75;;;15.00;99.90;;;;;;5068910;28;20301;-78
2023/05/15 12:03:42;;;;;;;10.27;5.20;;;15.00;99.90;;;;;;5069829;28;20597;-78
2023/05/15 12:06:11;;;;;;;6.60;3.85;;;15.00;99.90;;;;;;5070287;28;20221;-78
2023/05/15 12:08:38;;;;;;;9.13;4.07;;;14.80;99.90;;;;;;5069558;28;20201;-77
2023/05/15 12:11:05;;;;;;;10.70;4.00;;;14.60;99.90;;;;;;5070047;28;20424;-80
2023/05/15 12:13:34;;;;;;;9.55;4.43;;;14.50;99.90;;;;;;5068999;28;20202;-77
2023/05/15 12:16:02;;;;;;;7.43;3.40;;;14.40;99.90;;;;;;5069673;28;20630;-77
2023/05/15 12:18:30;;;;;;;5.37;2.77;;;14.40;99.90;;;;;;5070328;28;20206;-77
2023/05/15 12:20:57;;;;;;;6.90;2.87;;;14.50;99.90;;;;;;5068779;28;20205;-77
2023/05/15 12:23:26;;;;;;;8.15;4.03;;;14.50;99.90;;;;;;5069912;28;20284;-78
2023/05/15 12:25:57;;;;;;;9.57;4.15;;;14.60;99.90;;;;;;5069154;28;20260;-78
2023/05/15 12:28:24;;;;;;;9.15;4.25;;;14.60;99.90;;;;;;5068504;28;20209;-78
2023/05/15 12:30:53;;;;;;;10.00;4.15;;;14.50;99.90;;;;;;5069517;28;20204;-77
2023/05/15 12:33:20;;;;;;;7.07;2.95;;;14.50;99.90;;;;;;5069044;28;20204;-77
2023/05/15 12:35:53;;;;;;;7.20;3.40;;;14.50;99.90;;;;;;5064827;28;20209;-78
2023/05/15 12:38:21;;;;;;;10.02;2.78;;;14.50;99.90;;;;;;5055578;28;20206;-77